Time;durP1;ratioP1;P1;durP2;ratioP2;P2;SDS_P1;SDS_P2;PMS_P1;PMS_P2;Temp;Humidity;BMP_temperature;BMP_pressure;BME280_temperature;BME280_humidity;BME280_pressure;Samples;Min_cycle;Max_cycle;Signal;HPM_P1;HPM_P2
2022/03/31 00:00:25;;;;;;;5.20;4.70;;;;;;;1.52;nan;100294.22;5092490;28;20550;-60
2022/03/31 00:02:51;;;;;;;5.63;4.82;;;;;;;1.43;nan;100294.28;5093558;28;20036;-59
2022/03/31 00:05:16;;;;;;;5.63;4.80;;;;;;;1.32;nan;100302.09;5094031;28;20139;-59
2022/03/31 00:07:47;;;;;;;6.35;5.82;;;;;;;1.21;nan;100297.81;5093486;28;20600;-60
2022/03/31 00:10:13;;;;;;;5.30;4.80;;;;;;;0.74;nan;100221.09;5093496;28;20039;-59
2022/03/31 00:12:38;;;;;;;6.05;5.07;;;;;;;1.02;nan;100268.53;5093452;28;20534;-59
2022/03/31 00:15:04;;;;;;;5.75;5.03;;;;;;;1.06;nan;100278.88;5093295;28;20028;-60
2022/03/31 00:17:29;;;;;;;5.60;4.78;;;;;;;1.17;nan;100291.78;5093163;28;20059;-60
2022/03/31 00:19:55;;;;;;;6.13;5.38;;;;;;;1.20;nan;100291.75;5093299;28;20077;-60
2022/03/31 00:22:20;;;;;;;11.27;5.63;;;;;;;0.83;nan;100222.78;5087233;28;20029;-60
2022/03/31 00:24:49;;;;;;;7.57;5.43;;;;;;;1.31;nan;100283.97;5092970;28;20507;-59
2022/03/31 00:27:14;;;;;;;7.07;5.70;;;;;;;1.02;nan;100227.88;5093236;28;20064;-60
2022/03/31 00:29:39;;;;;;;6.45;5.60;;;;;;;1.43;nan;100274.38;5073943;28;20538;-59
2022/03/31 00:32:05;;;;;;;6.32;4.90;;;;;;;1.50;nan;100272.63;5072946;28;20061;-59
2022/03/31 00:34:31;;;;;;;6.80;4.90;;;;;;;1.52;nan;100278.66;5071635;28;20036;-60
2022/03/31 00:36:57;;;;;;;4.85;4.38;;;;;;;1.36;nan;100264.94;5071574;28;20439;-59
2022/03/31 00:39:34;;;;;;;4.97;4.00;;;;;;;1.50;nan;100270.91;5055010;28;20492;-59
2022/03/31 00:42:02;;;;;;;4.57;4.18;;;;;;;1.41;nan;100275.28;5072510;28;20040;-60
2022/03/31 00:44:27;;;;;;;4.18;3.78;;;;;;;1.40;nan;100268.38;5071379;28;20400;-59
2022/03/31 00:46:54;;;;;;;4.38;3.38;;;;;;;0.14;nan;100060.75;5071092;28;20040;-59
2022/03/31 00:49:20;;;;;;;5.03;3.83;;;;;;;1.01;nan;100220.13;5088324;28;20039;-59
2022/03/31 00:51:47;;;;;;;5.22;4.20;;;;;;;1.31;nan;100269.28;5071278;28;20024;-58
2022/03/31 00:54:13;;;;;;;5.35;4.68;;;;;;;1.28;nan;100268.44;5071138;28;20033;-60
2022/03/31 00:56:40;;;;;;;6.55;4.70;;;;;;;1.26;nan;100264.94;5071100;28;20024;-59
2022/03/31 00:59:08;;;;;;;6.30;4.63;;;;;;;1.22;nan;100271.03;5071365;28;20037;-59
2022/03/31 01:01:35;;;;;;;7.32;4.50;;;;;;;1.13;nan;100269.34;5071852;28;20036;-59
2022/03/31 01:04:01;;;;;;;6.32;4.93;;;;;;;1.00;nan;100268.50;5071132;28;20032;-59
2022/03/31 01:06:26;;;;;;;6.88;5.38;;;;;;;0.90;nan;100253.00;5071095;28;20035;-60
2022/03/31 01:08:52;;;;;;;5.60;5.00;;;;;;;0.73;nan;100215.91;5070937;28;20028;-59
2022/03/31 01:11:17;;;;;;;7.15;5.57;;;;;;;0.87;nan;100259.06;5072162;28;20078;-59
2022/03/31 01:13:42;;;;;;;5.85;5.25;;;;;;;0.87;nan;100264.25;5072174;28;20514;-60
2022/03/31 01:16:08;;;;;;;6.85;5.07;;;;;;;0.78;nan;100264.25;5070803;28;20082;-59
2022/03/31 01:18:34;;;;;;;6.38;5.40;;;;;;;0.40;nan;100198.72;5074829;28;20036;-58
2022/03/31 01:21:01;;;;;;;6.05;5.22;;;;;;;0.73;nan;100249.59;5091666;28;20036;-59
2022/03/31 01:23:27;;;;;;;8.27;5.80;;;;;;;0.61;nan;100240.13;5074475;28;20115;-58
2022/03/31 01:25:52;;;;;;;7.03;6.00;;;;;;;0.68;nan;100253.91;5077505;28;20039;-59
2022/03/31 01:28:18;;;;;;;7.80;6.28;;;;;;;0.70;nan;100257.38;5074749;28;20045;-58
2022/03/31 01:30:44;;;;;;;8.93;5.90;;;;;;;0.70;nan;100254.78;5070991;28;20038;-61
2022/03/31 01:33:10;;;;;;;6.95;5.85;;;;;;;0.69;nan;100237.50;5071966;28;20040;-58
2022/03/31 01:35:36;;;;;;;8.73;6.13;;;;;;;0.65;nan;100233.19;5074179;28;20548;-59
2022/03/31 01:38:01;;;;;;;8.60;5.63;;;;;;;0.69;nan;100253.91;5071758;28;20123;-59
2022/03/31 01:40:26;;;;;;;7.35;6.10;;;;;;;0.50;nan;100216.81;5071776;28;20163;-58
2022/03/31 01:42:52;;;;;;;9.68;6.53;;;;;;;0.62;nan;100238.38;5071893;28;20037;-58
2022/03/31 01:45:21;;;;;;;8.48;6.75;;;;;;;0.61;nan;100227.16;5073244;28;20048;-58
2022/03/31 01:47:47;;;;;;;8.80;6.97;;;;;;;0.28;nan;100162.50;5091971;28;20154;-58
2022/03/31 01:50:13;;;;;;;10.35;7.53;;;;;;;0.70;nan;100241.84;5092006;28;20123;-59
2022/03/31 01:52:39;;;;;;;10.20;8.05;;;;;;;0.25;nan;100160.78;5091762;28;20508;-59
2022/03/31 01:55:06;;;;;;;10.02;7.15;;;;;;;-0.08;nan;100099.59;5091872;28;20171;-59
2022/03/31 01:57:31;;;;;;;8.52;6.68;;;;;;;0.23;nan;100159.94;5090721;28;20396;-59
2022/03/31 01:59:57;;;;;;;9.05;6.82;;;;;;;0.65;nan;100235.78;5091998;28;20033;-59
2022/03/31 02:02:22;;;;;;;9.23;7.63;;;;;;;0.62;nan;100215.06;5090767;28;20032;-58
2022/03/31 02:04:48;;;;;;;11.43;7.45;;;;;;;0.75;nan;100220.22;5073586;28;20135;-58
2022/03/31 02:07:13;;;;;;;9.32;6.78;;;;;;;0.78;nan;100220.22;5090613;28;20048;-58
2022/03/31 02:09:39;;;;;;;9.52;7.15;;;;;;;0.38;nan;100151.28;5090514;28;20028;-56
2022/03/31 02:12:05;;;;;;;10.23;6.90;;;;;;;0.68;nan;100204.69;5093033;28;20032;-59
2022/03/31 02:14:32;;;;;;;9.50;7.25;;;;;;;0.25;nan;100126.25;5095899;28;20062;-60
2022/03/31 02:16:58;;;;;;;9.55;7.10;;;;;;;0.37;nan;100145.22;5095705;28;20126;-57
2022/03/31 02:19:25;;;;;;;10.55;7.00;;;;;;;0.84;nan;100220.22;5095613;28;20438;-59
2022/03/31 02:21:50;;;;;;;10.88;6.85;;;;;;;0.57;nan;100164.16;5095358;28;20036;-58
2022/03/31 02:24:16;;;;;;;10.45;6.63;;;;;;;0.90;nan;100217.59;5095471;28;20024;-58
2022/03/31 02:26:41;;;;;;;7.45;6.03;;;;;;;0.53;nan;100162.44;5094038;28;20036;-58
2022/03/31 02:29:07;;;;;;;10.63;6.25;;;;;;;0.81;nan;100206.41;5094149;28;20060;-58
2022/03/31 02:31:33;;;;;;;10.18;6.55;;;;;;;0.87;nan;100229.69;5094156;28;20040;-58
2022/03/31 02:33:58;;;;;;;8.55;6.22;;;;;;;0.80;nan;100194.28;5094055;28;20154;-58
2022/03/31 02:36:26;;;;;;;9.38;6.60;;;;;;;0.57;nan;100158.97;5093998;28;20024;-59
2022/03/31 02:38:51;;;;;;;6.32;5.63;;;;;;;0.58;nan;100136.53;5095258;28;20036;-59
2022/03/31 02:41:17;;;;;;;7.18;4.97;;;;;;;0.55;nan;100115.84;5092567;28;20158;-58
2022/03/31 02:43:42;;;;;;;5.93;4.60;;;;;;;0.48;nan;100106.34;5083570;28;20468;-57
2022/03/31 02:46:08;;;;;;;7.25;4.90;;;;;;;0.94;nan;100182.16;5094942;28;20477;-58
2022/03/31 02:48:33;;;;;;;10.00;5.53;;;;;;;0.90;nan;100183.03;5094803;28;20024;-58
2022/03/31 02:50:59;;;;;;;6.68;5.15;;;;;;;0.48;nan;100119.28;5094988;28;20038;-58
2022/03/31 02:56:08;;;;;;;8.77;5.78;;;;;;;0.89;nan;100165.75;5094998;28;20427;-59
2022/03/31 02:58:34;;;;;;;8.05;6.43;;;;;;;0.94;nan;100175.25;5094608;28;20040;-58
2022/03/31 03:01:00;;;;;;;8.55;6.80;;;;;;;1.00;nan;100175.22;5094818;28;20191;-57
2022/03/31 03:03:25;;;;;;;9.02;7.22;;;;;;;1.03;nan;100170.03;5094843;28;20032;-59
2022/03/31 03:05:52;;;;;;;8.10;6.57;;;;;;;0.69;nan;100108.88;5094981;28;20032;-55
2022/03/31 03:08:17;;;;;;;9.77;6.35;;;;;;;0.69;nan;100100.22;5076808;28;20068;-57
2022/03/31 03:10:43;;;;;;;9.38;6.80;;;;;;;1.13;nan;100156.16;5094802;28;20452;-59
2022/03/31 03:13:10;;;;;;;7.75;5.75;;;;;;;0.73;nan;100082.06;5093648;28;20404;-59
2022/03/31 03:15:35;;;;;;;7.05;5.97;;;;;;;1.21;nan;100158.69;5094541;28;20534;-57
2022/03/31 03:18:01;;;;;;;9.68;6.25;;;;;;;1.22;nan;100167.34;5094319;28;20040;-57
2022/03/31 03:20:33;;;;;;;9.77;7.03;;;;;;;1.24;nan;100163.88;5093033;28;20032;-58
2022/03/31 03:22:59;;;;;;;8.70;6.78;;;;;;;1.27;nan;100156.06;5093486;28;20473;-59
2022/03/31 03:25:24;;;;;;;10.68;7.38;;;;;;;1.22;nan;100144.00;5093690;28;20082;-58
2022/03/31 03:27:50;;;;;;;10.43;8.40;;;;;;;1.26;nan;100164.72;5094179;28;21300;-59
2022/03/31 03:30:18;;;;;;;11.30;7.93;;;;;;;1.26;nan;100158.66;5094166;28;20033;-59
2022/03/31 03:32:45;;;;;;;14.02;8.88;;;;;;;1.27;nan;100169.03;5110113;28;20043;-56
2022/03/31 03:35:11;;;;;;;13.68;8.40;;;;;;;1.31;nan;100160.38;5093146;28;20107;-58
2022/03/31 03:37:38;;;;;;;14.20;10.20;;;;;;;1.24;nan;100158.69;5077057;28;20121;-57
2022/03/31 03:40:05;;;;;;;12.85;9.35;;;;;;;1.31;nan;100165.56;5092414;28;20117;-57
2022/03/31 03:42:31;;;;;;;13.27;9.18;;;;;;;1.30;nan;100162.97;5082101;28;20042;-55
2022/03/31 03:44:57;;;;;;;15.55;8.82;;;;;;;1.18;nan;100137.97;5085266;28;20072;-58
2022/03/31 03:47:23;;;;;;;12.35;8.75;;;;;;;0.98;nan;100098.34;5089681;28;20036;-56
2022/03/31 03:49:49;;;;;;;11.48;8.50;;;;;;;1.32;nan;100149.13;5088377;28;20040;-58
2022/03/31 03:52:15;;;;;;;10.70;8.00;;;;;;;1.18;nan;100119.84;5080736;28;20072;-55
2022/03/31 03:54:40;;;;;;;10.68;8.27;;;;;;;1.16;nan;100092.22;5077771;28;20012;-56
2022/03/31 03:57:07;;;;;;;11.60;7.28;;;;;;;1.56;nan;100171.44;5072221;28;20396;-58
2022/03/31 03:59:33;;;;;;;10.50;7.55;;;;;;;1.58;nan;100161.91;5077177;28;20028;-59
2022/03/31 04:02:01;;;;;;;9.90;7.88;;;;;;;1.59;nan;100146.34;5093476;28;20123;-58
2022/03/31 04:04:29;;;;;;;9.43;6.78;;;;;;;1.21;nan;100086.13;5084900;28;20037;-59
2022/03/31 04:06:56;;;;;;;9.70;6.82;;;;;;;1.62;nan;100155.84;5093101;28;20473;-56
2022/03/31 04:09:21;;;;;;;10.07;7.38;;;;;;;1.64;nan;100170.53;5073188;28;20495;-57
2022/03/31 04:11:46;;;;;;;8.93;7.13;;;;;;;1.48;nan;100135.22;5073204;28;20043;-58
2022/03/31 04:14:11;;;;;;;7.57;6.28;;;;;;;1.59;nan;100142.91;5073008;28;20036;-58
2022/03/31 04:16:37;;;;;;;7.68;6.25;;;;;;;1.67;nan;100154.94;5072726;28;20040;-58
2022/03/31 04:19:05;;;;;;;8.48;6.90;;;;;;;1.67;nan;100157.53;5087274;28;20536;-55
2022/03/31 04:21:30;;;;;;;12.75;7.05;;;;;;;1.65;nan;100145.44;5093352;28;20036;-59
2022/03/31 04:23:55;;;;;;;10.98;6.20;;;;;;;1.66;nan;100158.41;5080608;28;20040;-58
2022/03/31 04:26:21;;;;;;;8.05;6.63;;;;;;;1.37;nan;100094.66;5071433;28;20035;-58
2022/03/31 04:28:46;;;;;;;8.63;6.93;;;;;;;1.42;nan;100104.13;5072769;28;20110;-59
2022/03/31 04:31:11;;;;;;;9.10;6.63;;;;;;;1.75;nan;100151.44;5082281;28;20044;-58
2022/03/31 04:33:39;;;;;;;7.57;6.72;;;;;;;1.76;nan;100151.41;5080650;28;20033;-58
2022/03/31 04:36:05;;;;;;;11.48;6.47;;;;;;;1.70;nan;100136.75;5071618;28;20033;-58
2022/03/31 04:38:30;;;;;;;7.93;6.30;;;;;;;1.44;nan;100076.44;5072696;28;20382;-56
2022/03/31 04:40:55;;;;;;;8.02;6.82;;;;;;;1.80;nan;100145.34;5072719;28;20040;-57
2022/03/31 04:43:21;;;;;;;11.23;6.43;;;;;;;1.42;nan;100077.31;5072626;28;20046;-58
2022/03/31 04:45:46;;;;;;;13.23;6.63;;;;;;;1.47;nan;100073.81;5072300;28;20473;-57
2022/03/31 04:48:11;;;;;;;13.18;7.20;;;;;;;1.70;nan;100107.34;5071407;28;20047;-57
2022/03/31 04:50:37;;;;;;;6.13;5.50;;;;;;;1.78;nan;100130.66;5072655;28;20043;-60
2022/03/31 04:53:03;;;;;;;9.68;5.93;;;;;;;1.75;nan;100133.28;5072223;28;20131;-56
2022/03/31 04:55:29;;;;;;;8.98;6.10;;;;;;;1.37;nan;100069.56;5072381;28;20123;-57
2022/03/31 04:57:54;;;;;;;7.65;6.07;;;;;;;1.78;nan;100136.69;5054649;28;20028;-58
2022/03/31 05:00:19;;;;;;;10.98;5.93;;;;;;;1.80;nan;100134.97;5072287;28;20043;-57
2022/03/31 05:02:46;;;;;;;9.23;5.35;;;;;;;1.80;nan;100147.94;5073740;28;20029;-58
2022/03/31 05:05:12;;;;;;;12.82;6.55;;;;;;;1.83;nan;100136.66;5087474;28;20401;-59
2022/03/31 05:07:38;;;;;;;10.95;6.82;;;;;;;1.88;nan;100145.25;5072493;28;20044;-58
2022/03/31 05:10:04;;;;;;;12.18;6.28;;;;;;;1.43;nan;100060.91;5089145;28;20029;-58
2022/03/31 05:12:29;;;;;;;7.57;6.20;;;;;;;1.92;nan;100137.47;5091323;28;20426;-58
2022/03/31 05:14:55;;;;;;;11.88;6.30;;;;;;;1.43;nan;100056.56;5092145;28;20365;-58
2022/03/31 05:17:20;;;;;;;10.35;6.85;;;;;;;1.51;nan;100072.06;5092172;28;20044;-59
2022/03/31 05:19:45;;;;;;;11.15;6.68;;;;;;;1.46;nan;100066.91;5091241;28;20464;-58
2022/03/31 05:22:11;;;;;;;10.57;6.35;;;;;;;1.76;nan;100115.09;5075379;28;20559;-58
2022/03/31 05:24:36;;;;;;;8.70;6.60;;;;;;;1.82;nan;100135.78;5072129;28;20150;-58
2022/03/31 05:27:02;;;;;;;8.82;6.45;;;;;;;1.77;nan;100126.34;5070911;28;20384;-57
2022/03/31 05:29:27;;;;;;;12.52;7.25;;;;;;;1.84;nan;100144.41;5072025;28;20396;-59
2022/03/31 05:31:53;;;;;;;11.63;7.90;;;;;;;1.59;nan;100083.25;5070534;28;20035;-57
2022/03/31 05:34:19;;;;;;;12.18;7.43;;;;;;;1.94;nan;100145.22;5072141;28;20040;-59
2022/03/31 05:36:46;;;;;;;15.88;7.55;;;;;;;1.93;nan;100133.97;5072304;28;20032;-60
2022/03/31 05:39:12;;;;;;;11.00;7.20;;;;;;;1.96;nan;100136.53;5070820;28;20085;-58
2022/03/31 05:41:38;;;;;;;11.00;6.68;;;;;;;1.93;nan;100121.00;5070693;28;20039;-61
2022/03/31 05:44:04;;;;;;;10.65;6.65;;;;;;;1.94;nan;100125.31;5072128;28;20048;-59
2022/03/31 05:46:30;;;;;;;14.48;7.22;;;;;;;1.93;nan;100125.31;5071958;28;20044;-59
2022/03/31 05:48:55;;;;;;;12.85;7.78;;;;;;;1.91;nan;100125.34;5074722;28;20087;-58
2022/03/31 05:51:21;;;;;;;14.90;8.57;;;;;;;1.89;nan;100116.72;5074698;28;20041;-59
2022/03/31 05:53:47;;;;;;;10.75;7.93;;;;;;;1.88;nan;100121.91;5078028;28;20042;-57
2022/03/31 05:56:12;;;;;;;11.25;8.38;;;;;;;1.86;nan;100119.34;5096302;28;20043;-59
2022/03/31 05:58:38;;;;;;;13.05;8.07;;;;;;;1.86;nan;100121.06;5078518;28;20465;-58
2022/03/31 06:01:04;;;;;;;14.13;10.07;;;;;;;1.82;nan;100121.97;5075914;28;20471;-58
2022/03/31 06:03:30;;;;;;;12.50;9.07;;;;;;;1.75;nan;100112.53;5074363;28;20039;-58
2022/03/31 06:05:55;;;;;;;16.33;9.43;;;;;;;1.79;nan;100115.06;5075567;28;20469;-59
2022/03/31 06:08:21;;;;;;;14.55;9.32;;;;;;;1.72;nan;100094.38;5075604;28;20036;-59
2022/03/31 06:10:47;;;;;;;13.10;8.73;;;;;;;1.85;nan;100114.16;5075822;28;20515;-58
2022/03/31 06:13:13;;;;;;;11.15;8.15;;;;;;;1.71;nan;100106.50;5073854;28;20048;-57
2022/03/31 06:15:39;;;;;;;12.25;6.90;;;;;;;1.81;nan;100112.47;5075289;28;20044;-58
2022/03/31 06:18:06;;;;;;;7.75;6.28;;;;;;;1.82;nan;100115.03;5075384;28;20047;-56
2022/03/31 06:20:34;;;;;;;7.88;5.72;;;;;;;1.49;nan;100055.69;5074866;28;20127;-59
2022/03/31 06:23:00;;;;;;;11.15;6.13;;;;;;;1.88;nan;100125.38;5075136;28;20568;-58
2022/03/31 06:25:25;;;;;;;7.70;5.32;;;;;;;1.92;nan;100123.63;5074090;28;20036;-59
2022/03/31 06:27:50;;;;;;;10.20;5.80;;;;;;;1.91;nan;100108.91;5057341;28;20512;-58
2022/03/31 06:30:16;;;;;;;12.20;6.45;;;;;;;2.06;nan;100122.63;5073808;28;20049;-59
2022/03/31 06:32:42;;;;;;;8.60;5.78;;;;;;;1.81;nan;100068.38;5073518;28;20123;-58
2022/03/31 06:35:11;;;;;;;11.73;6.82;;;;;;;1.76;nan;100037.25;5074908;28;20139;-59
2022/03/31 06:37:38;;;;;;;10.45;6.22;;;;;;;1.87;nan;100069.13;5074562;28;20208;-58
2022/03/31 06:40:04;;;;;;;6.65;5.03;;;;;;;2.30;nan;100139.69;5074719;28;20028;-58
2022/03/31 06:42:29;;;;;;;10.75;5.85;;;;;;;2.39;nan;100134.41;5090393;28;20358;-59
2022/03/31 06:44:56;;;;;;;14.07;5.80;;;;;;;2.04;nan;100071.59;5095103;28;20047;-59
2022/03/31 06:47:21;;;;;;;13.70;5.15;;;;;;;2.32;nan;100111.97;5095108;28;20500;-59
2022/03/31 06:49:46;;;;;;;9.95;5.55;;;;;;;1.80;nan;100013.00;5093859;28;20036;-58
2022/03/31 06:52:11;;;;;;;7.32;4.70;;;;;;;2.58;nan;100125.53;5094927;28;20032;-59
2022/03/31 06:54:37;;;;;;;11.63;5.07;;;;;;;2.72;nan;100130.53;5093512;28;20031;-57
2022/03/31 06:57:02;;;;;;;11.45;4.90;;;;;;;2.81;nan;100110.50;5094653;28;20065;-56
2022/03/31 06:59:30;;;;;;;5.22;4.20;;;;;;;3.01;nan;100127.56;5092712;28;20032;-57
2022/03/31 07:01:55;;;;;;;8.18;4.97;;;;;;;3.04;nan;100128.41;5094882;28;20060;-59
2022/03/31 07:04:21;;;;;;;6.85;4.10;;;;;;;3.00;nan;100120.69;5094998;28;20032;-57
2022/03/31 07:06:46;;;;;;;4.30;3.70;;;;;;;3.07;nan;100124.91;5094874;28;20044;-59
2022/03/31 07:09:11;;;;;;;5.35;3.95;;;;;;;2.95;nan;100083.50;5094612;28;20400;-58
2022/03/31 07:11:37;;;;;;;9.80;4.47;;;;;;;3.25;nan;100128.13;5076375;28;20043;-57
2022/03/31 07:14:05;;;;;;;6.50;4.20;;;;;;;3.41;nan;100116.59;5094192;28;20388;-58
2022/03/31 07:16:31;;;;;;;4.68;4.18;;;;;;;3.86;nan;100122.84;5094172;28;20550;-58
2022/03/31 07:18:57;;;;;;;4.20;3.58;;;;;;;4.14;nan;100119.78;5093661;28;20039;-58
2022/03/31 07:21:23;;;;;;;7.43;3.92;;;;;;;4.43;nan;100120.09;5094730;28;20087;-59
2022/03/31 07:23:50;;;;;;;5.40;3.22;;;;;;;4.52;nan;100135.56;5094274;28;20040;-59
2022/03/31 07:26:16;;;;;;;3.90;3.10;;;;;;;4.48;nan;100128.69;5094098;28;20091;-57
2022/03/31 07:28:41;;;;;;;7.45;3.80;;;;;;;3.95;nan;100067.16;5090277;28;20047;-58
2022/03/31 07:31:07;;;;;;;6.55;3.92;;;;;;;4.35;nan;100141.06;5074865;28;20025;-58
2022/03/31 07:33:32;;;;;;;5.63;3.65;;;;;;;4.27;nan;100147.31;5072589;28;20036;-58
2022/03/31 07:35:58;;;;;;;8.95;3.83;;;;;;;4.10;nan;100142.41;5103559;28;20108;-57
2022/03/31 07:38:23;;;;;;;5.28;3.40;;;;;;;4.07;nan;100139.84;5092720;28;20109;-57
2022/03/31 07:40:49;;;;;;;5.30;3.08;;;;;;;3.97;nan;100143.47;5097041;28;20548;-57
2022/03/31 07:43:15;;;;;;;7.30;3.80;;;;;;;3.89;nan;100140.16;5093680;28;20527;-56
2022/03/31 07:45:41;;;;;;;5.25;3.28;;;;;;;3.83;nan;100137.63;5093470;28;20063;-58
2022/03/31 07:48:08;;;;;;;3.97;3.65;;;;;;;3.50;nan;100132.97;5091727;28;20088;-58
2022/03/31 07:50:35;;;;;;;3.50;3.20;;;;;;;3.49;nan;100141.66;5093239;28;20036;-58
2022/03/31 07:53:01;;;;;;;6.25;3.67;;;;;;;3.29;nan;100123.75;5091798;28;20040;-58
2022/03/31 07:55:26;;;;;;;5.00;3.30;;;;;;;3.29;nan;100129.81;5092322;28;20113;-58
2022/03/31 07:57:53;;;;;;;7.80;3.92;;;;;;;2.97;nan;100064.41;5093804;28;20489;-58
2022/03/31 08:00:20;;;;;;;5.18;3.50;;;;;;;3.52;nan;100121.66;5092464;28;20032;-59
2022/03/31 08:02:47;;;;;;;4.20;3.40;;;;;;;3.94;nan;100122.72;5075594;28;20040;-58
2022/03/31 08:05:18;;;;;;;3.70;3.42;;;;;;;4.30;nan;100116.00;5093625;28;20119;-59
2022/03/31 08:07:43;;;;;;;4.15;3.55;;;;;;;4.69;nan;100107.41;5093562;28;20428;-58
2022/03/31 08:10:09;;;;;;;4.50;3.45;;;;;;;5.10;nan;100125.69;5091992;28;20063;-59
2022/03/31 08:12:35;;;;;;;3.80;3.42;;;;;;;5.39;nan;100126.78;5092111;28;20369;-58
2022/03/31 08:15:01;;;;;;;3.05;2.70;;;;;;;5.76;nan;100135.47;5092183;28;20036;-58
2022/03/31 08:17:27;;;;;;;3.83;2.95;;;;;;;5.67;nan;100092.16;5093325;28;20043;-57
2022/03/31 08:19:52;;;;;;;4.72;2.53;;;;;;;6.19;nan;100135.28;5091922;28;20512;-59
2022/03/31 08:22:21;;;;;;;3.33;2.97;;;;;;;5.79;nan;100088.38;5092946;28;20044;-59
2022/03/31 08:24:47;;;;;;;3.35;2.65;;;;;;;5.47;nan;100076.09;5086608;28;20519;-58
2022/03/31 08:27:12;;;;;;;5.10;3.17;;;;;;;5.41;nan;100091.03;5085568;28;20044;-58
2022/03/31 08:29:39;;;;;;;5.32;3.53;;;;;;;5.60;nan;100121.91;5092678;28;20435;-58
2022/03/31 08:32:08;;;;;;;4.45;2.53;;;;;;;5.53;nan;100120.34;5071910;28;20040;-57
2022/03/31 08:34:33;;;;;;;5.10;2.90;;;;;;;5.86;nan;100139.63;5072760;28;20037;-56
2022/03/31 08:36:58;;;;;;;4.28;2.83;;;;;;;5.92;nan;100146.44;5072749;28;20032;-54
2022/03/31 08:39:24;;;;;;;3.28;2.97;;;;;;;5.65;nan;100130.50;5072656;28;20032;-57
2022/03/31 08:41:49;;;;;;;5.65;3.05;;;;;;;5.43;nan;100115.38;5072848;28;20499;-56
2022/03/31 08:44:15;;;;;;;3.35;2.85;;;;;;;5.62;nan;100138.41;5090837;28;20039;-57
2022/03/31 08:46:41;;;;;;;2.53;2.33;;;;;;;5.38;nan;100080.69;5091411;28;20035;-57
2022/03/31 08:49:10;;;;;;;2.70;2.50;;;;;;;5.09;nan;100083.97;5092732;28;20040;-57
2022/03/31 08:51:37;;;;;;;3.38;3.03;;;;;;;5.14;nan;100138.66;5091317;28;20040;-57
2022/03/31 08:54:02;;;;;;;2.65;2.45;;;;;;;5.03;nan;100108.44;5091399;28;20112;-56
2022/03/31 08:56:28;;;;;;;3.05;2.85;;;;;;;5.17;nan;100143.81;5091550;28;20039;-55
2022/03/31 08:58:53;;;;;;;4.28;2.95;;;;;;;5.19;nan;100136.78;5092704;28;20024;-58
2022/03/31 09:01:18;;;;;;;3.30;3.00;;;;;;;5.16;nan;100140.34;5092539;28;20545;-55
2022/03/31 09:03:44;;;;;;;3.65;3.33;;;;;;;5.08;nan;100139.63;5092514;28;20036;-58
2022/03/31 09:06:30;;;;;;;3.25;2.95;;;;;;;4.58;nan;100070.28;5090383;28;20070;-57
2022/03/31 09:09:03;;;;;;;3.25;2.80;;;;;;;4.95;nan;100117.31;5091464;28;20038;-57
2022/03/31 09:11:29;;;;;;;4.07;2.58;;;;;;;4.96;nan;100126.84;5091363;28;20028;-57
2022/03/31 09:14:00;;;;;;;2.80;2.58;;;;;;;4.82;nan;100127.13;5092326;28;20162;-58
2022/03/31 09:16:38;;;;;;;3.35;2.70;;;;;;;4.69;nan;100143.91;5092256;28;20024;-57
2022/03/31 09:19:11;;;;;;;3.10;2.83;;;;;;;4.45;nan;100145.22;5087665;28;20381;-55
2022/03/31 09:22:09;;;;;;;2.95;2.75;;;;;;;4.41;nan;100138.34;5071598;28;20031;-56
2022/03/31 09:24:35;;;;;;;3.03;2.70;;;;;;;4.46;nan;100123.50;5027166;28;20037;-55
2022/03/31 09:27:01;;;;;;;7.05;2.65;;;;;;;4.62;nan;100125.78;5071846;28;20029;-56
2022/03/31 09:29:28;;;;;;;2.80;2.20;;;;;;;4.85;nan;100127.06;5070749;28;20052;-55
2022/03/31 09:32:04;;;;;;;2.50;2.20;;;;;;;4.89;nan;100133.94;5070928;28;20400;-56
2022/03/31 09:34:43;;;;;;;2.00;1.90;;;;;;;4.42;nan;100069.72;5070889;28;20032;-55
2022/03/31 09:37:09;;;;;;;2.25;1.77;;;;;;;4.41;nan;100088.84;5070642;28;20067;-57
2022/03/31 09:39:35;;;;;;;2.50;2.38;;;;;;;4.62;nan;100146.66;5071938;28;20109;-58
2022/03/31 09:42:00;;;;;;;3.08;2.08;;;;;;;4.60;nan;100148.44;5070769;28;20063;-54
2022/03/31 09:44:26;;;;;;;2.80;2.50;;;;;;;4.57;nan;100128.50;5072204;28;20048;-57
2022/03/31 09:46:52;;;;;;;2.78;2.58;;;;;;;4.53;nan;100130.31;5070326;28;20032;-56
2022/03/31 09:49:27;;;;;;;3.38;2.75;;;;;;;4.77;nan;100121.16;5070611;28;20036;-58
2022/03/31 09:51:59;;;;;;;3.20;2.50;;;;;;;5.01;nan;100131.09;5070588;28;20068;-56
2022/03/31 09:54:29;;;;;;;2.30;2.10;;;;;;;5.04;nan;100073.63;5071892;28;20120;-53
2022/03/31 09:56:56;;;;;;;3.53;2.63;;;;;;;5.28;nan;100081.81;5071943;28;20064;-58
2022/03/31 09:59:29;;;;;;;3.03;2.50;;;;;;;5.22;nan;100063.69;5071579;28;20552;-55
2022/03/31 10:01:54;;;;;;;4.38;2.10;;;;;;;5.73;nan;100135.53;5071758;28;20032;-56
2022/03/31 10:04:20;;;;;;;2.25;2.10;;;;;;;6.00;nan;100121.84;5070401;28;20116;-56
2022/03/31 10:06:45;;;;;;;2.28;2.08;;;;;;;6.65;nan;100122.72;5070498;28;20093;-56
2022/03/31 10:09:12;;;;;;;1.92;1.83;;;;;;;7.07;nan;100133.69;5071709;28;20029;-55
2022/03/31 10:11:43;;;;;;;2.55;1.92;;;;;;;7.15;nan;100134.31;5071799;28;20170;-57
2022/03/31 10:14:30;;;;;;;2.00;1.90;;;;;;;8.02;nan;100124.59;5071619;28;20082;-56
2022/03/31 10:17:01;;;;;;;1.50;1.40;;;;;;;8.14;nan;100073.53;5070155;28;20044;-56
2022/03/31 10:19:38;;;;;;;2.53;1.90;;;;;;;8.30;nan;100135.03;5070397;28;20436;-56
2022/03/31 10:25:08;;;;;;;1.90;1.67;;;;;;;7.47;nan;100093.25;5090884;28;20453;-56
2022/03/31 10:27:35;;;;;;;2.00;1.80;;;;;;;7.20;nan;100095.81;5075087;28;20036;-56
2022/03/31 10:30:19;;;;;;;4.38;2.28;;;;;;;7.13;nan;100094.25;5071116;28;20501;-58
2022/03/31 10:32:53;;;;;;;1.95;1.85;;;;;;;7.32;nan;100146.94;5071769;28;20055;-57
2022/03/31 10:35:47;;;;;;;1.85;1.75;;;;;;;7.17;nan;100115.97;5075084;28;20048;-57
2022/03/31 10:38:16;;;;;;;1.70;1.60;;;;;;;6.90;nan;100072.31;5078474;28;20092;-52
2022/03/31 10:40:44;;;;;;;2.45;2.25;;;;;;;6.56;nan;100021.00;5095279;28;20032;-55
2022/03/31 10:43:28;;;;;;;2.00;1.90;;;;;;;7.20;nan;100121.97;5095321;28;20028;-52
2022/03/31 10:45:58;;;;;;;2.17;1.90;;;;;;;6.95;nan;100109.63;5094874;28;20050;-54
2022/03/31 10:48:30;;;;;;;2.22;2.13;;;;;;;6.69;nan;100136.53;5094141;28;20032;-54
2022/03/31 10:51:03;;;;;;;2.13;1.90;;;;;;;6.73;nan;100109.41;5093956;28;20032;-58
2022/03/31 10:53:30;;;;;;;1.98;1.88;;;;;;;6.29;nan;100079.28;5094939;28;20036;-56
2022/03/31 10:55:57;;;;;;;1.90;1.80;;;;;;;6.74;nan;100119.00;5093888;28;20036;-57
2022/03/31 10:58:28;;;;;;;2.40;2.20;;;;;;;7.03;nan;100112.91;5094823;28;20035;-56
2022/03/31 11:00:54;;;;;;;2.53;1.73;;;;;;;7.01;nan;100052.75;5093479;28;20032;-58
2022/03/31 11:03:19;;;;;;;2.15;2.03;;;;;;;7.44;nan;100106.44;5093505;28;20460;-58
2022/03/31 11:05:46;;;;;;;2.10;2.00;;;;;;;7.34;nan;100114.56;5094884;28;20032;-55
2022/03/31 11:08:17;;;;;;;2.50;2.30;;;;;;;6.91;nan;100056.56;5093653;28;20436;-57
2022/03/31 11:10:49;;;;;;;2.08;1.98;;;;;;;6.94;nan;100056.47;5093610;28;20821;-58
2022/03/31 11:13:16;;;;;;;2.08;1.98;;;;;;;6.87;nan;100049.72;5094404;28;20032;-58
2022/03/31 11:15:44;;;;;;;2.33;2.13;;;;;;;7.21;nan;100101.88;5094611;28;20101;-57
2022/03/31 11:18:10;;;;;;;2.53;2.33;;;;;;;6.79;nan;100102.25;5074903;28;20021;-58
2022/03/31 11:20:35;;;;;;;2.38;2.17;;;;;;;6.58;nan;100100.25;5074349;28;20090;-54
2022/03/31 11:23:06;;;;;;;2.60;2.40;;;;;;;6.15;nan;100061.34;5084509;28;20036;-56
2022/03/31 11:25:31;;;;;;;3.30;3.00;;;;;;;6.34;nan;100097.44;5094406;28;20040;-58
2022/03/31 11:27:58;;;;;;;2.60;2.40;;;;;;;6.25;nan;100092.47;5094042;28;20036;-57
2022/03/31 11:30:25;;;;;;;3.92;3.00;;;;;;;6.18;nan;100090.03;5092907;28;20097;-58
2022/03/31 11:32:52;;;;;;;3.03;2.70;;;;;;;5.96;nan;100094.06;5092740;28;20024;-57
2022/03/31 11:35:20;;;;;;;3.10;2.80;;;;;;;5.96;nan;100088.84;5081330;28;20032;-56
2022/03/31 11:37:51;;;;;;;3.25;2.83;;;;;;;5.42;nan;100020.56;5073773;28;20470;-57
2022/03/31 11:40:27;;;;;;;4.97;2.90;;;;;;;5.89;nan;100095.13;5072716;28;20033;-58
2022/03/31 11:42:55;;;;;;;2.67;2.47;;;;;;;5.74;nan;100068.50;5073679;28;20143;-58
2022/03/31 11:45:43;;;;;;;3.38;2.60;;;;;;;5.90;nan;100083.78;5073408;28;20048;-53
2022/03/31 11:48:16;;;;;;;3.83;3.05;;;;;;;6.08;nan;100067.63;5073620;28;20024;-57
2022/03/31 11:50:56;;;;;;;3.15;2.95;;;;;;;6.16;nan;100073.50;5073596;28;20028;-57
2022/03/31 11:53:27;;;;;;;3.38;2.90;;;;;;;6.23;nan;100067.22;5072300;28;20029;-57